MV Causeway Supplier — ZR2426 — position and weather

sailwx.info

Track history (hours):
 
Tides and Currents Weather Stations Pressure Air Temp Water Temp Dewpoint Dewpoint Depression Visibility Wind Speed Wind Dir Waves Ship Positions

MV Causeway Supplier

Last reported at 2014-Nov-27 18:10 UTC. Time now 2014-Nov-27 19:37 UTC.
Position S 29°54' E 031°00'.

Length 22 m; draft 2.7 m.

Type: . MMSI: 601041200.

Date/timePositionNaut miles runAvg speedWind from/ knotsBaromVisibWave heightAir tempDewpointWater temp
2014-Nov-27 18:10S 29°54' E 031°00'2 3.8
2014-Nov-27 17:34S 29°52' E 031°02'1 1.2
2014-Nov-27 16:33S 29°53' E 031°02'0 0.0
2014-Nov-27 15:33S 29°53' E 031°02'2 2.0
2014-Nov-27 14:33S 29°54' E 031°00'0 0.0
2014-Nov-27 13:33S 29°54' E 031°00'3 3.2
2014-Nov-27 12:33S 29°52' E 031°03'5 5.0
2014-Nov-27 11:33S 29°57' E 031°04'2 1.2
2014-Nov-27 09:25S 29°59' E 031°05'2 2.7
2014-Nov-27 08:33S 29°57' E 031°07'2 2.2
2014-Nov-27 07:33S 29°56' E 031°08'3 3.0
2014-Nov-27 06:33S 29°53' E 031°08'5 5.4
2014-Nov-27 05:33S 29°52' E 031°02'2 2.2
2014-Nov-27 04:33S 29°54' E 031°00'0 0.0
2014-Nov-27 03:33S 29°54' E 031°00'0 0.0
2014-Nov-26 04:22S 29°54' E 031°00'3 4.2
2014-Nov-26 03:33S 29°52' E 031°04'4 3.8
2014-Nov-26 02:33S 29°52' E 031°08'3 3.2
2014-Nov-26 01:33S 29°51' E 031°05'5 4.8
2014-Nov-26 00:31S 29°54' E 031°00'0 0.0
2014-Nov-25 23:33S 29°54' E 031°00'0 0.0
2014-Nov-25 22:33S 29°54' E 031°00'0 0.0
2014-Nov-25 21:33S 29°54' E 031°00'0 0.0
2014-Nov-25 20:33S 29°54' E 031°00'0 0.0
2014-Nov-24 04:16S 29°54' E 031°00'3 3.6
2014-Nov-24 03:33S 29°53' E 031°03'7 6.9
2014-Nov-24 02:33S 29°56' E 031°10'1 1.3
2014-Nov-24 01:33S 29°55' E 031°09'7 6.9
2014-Nov-24 00:33S 29°52' E 031°02'2 2.2
2014-Nov-23 23:33S 29°54' E 031°00'0 0.0
2014-Nov-23 22:34S 29°54' E 031°00'0 0.0
2014-Nov-23 21:33S 29°54' E 031°00'10 0.3
2014-Nov-22 12:10S 29°57' E 031°11'1 1.3
2014-Nov-22 11:33S 29°56' E 031°12'1 1.2
2014-Nov-22 10:33S 29°55' E 031°13'1 0.9
2014-Nov-22 09:33S 29°55' E 031°14'4 4.1
2014-Nov-22 08:33S 29°53' E 031°09'8 7.6
2014-Nov-22 07:32S 29°52' E 031°01'2 1.7
2014-Nov-22 06:33S 29°54' E 031°00'0 0.0
2014-Nov-22 05:33S 29°54' E 031°00'5 0.2
2014-Nov-21 06:16S 29°51' E 031°04'6 8.7
2014-Nov-21 05:33S 29°45' E 031°07'8 7.7
2014-Nov-21 04:33S 29°39' E 031°13'1 0.9
2014-Nov-21 03:33S 29°40' E 031°14'1 0.9
2014-Nov-21 02:33S 29°40' E 031°15'1 1.2
2014-Nov-21 01:33S 29°41' E 031°16'1 1.1
2014-Nov-21 00:33S 29°41' E 031°17'8 8.1
2014-Nov-20 23:33S 29°47' E 031°10'9 8.5
2014-Nov-20 22:33S 29°53' E 031°03'3 2.7
2014-Nov-20 21:34S 29°54' E 031°00'0 0.0
2014-Nov-20 20:33S 29°54' E 031°00'0 0.0
2014-Nov-20 19:28S 29°54' E 031°00'1 0.8
2014-Nov-20 18:33S 29°53' E 031°00'5 5.0
2014-Nov-20 17:33S 29°49' E 031°04'7 7.3
2014-Nov-20 16:33S 29°43' E 031°08'4 4.2
2014-Nov-20 15:33S 29°39' E 031°10'2 1.9
2014-Nov-20 14:33S 29°40' E 031°12'2 1.9
2014-Nov-20 13:33S 29°41' E 031°14'6 6.4
2014-Nov-20 12:34S 29°46' E 031°09'7 7.3
2014-Nov-20 11:34S 29°52' E 031°04'4 1.9
2014-Nov-20 09:34S 29°54' E 031°00'0 0.0
2014-Nov-20 08:33S 29°54' E 031°00'3 1.1
2014-Nov-20 06:08S 29°53' E 031°03'5 8.2
2014-Nov-20 05:33S 29°49' E 031°07'9 8.7
2014-Nov-20 04:33S 29°43' E 031°14'0 0.4
2014-Nov-20 03:33S 29°43' E 031°14'0 0.3
2014-Nov-20 02:33S 29°43' E 031°14'1 0.6
2014-Nov-20 01:33S 29°43' E 031°15'2 2.0
2014-Nov-20 00:34S 29°43' E 031°13'7 7.0
2014-Nov-19 23:33S 29°48' E 031°07'7 7.2
2014-Nov-19 22:33S 29°53' E 031°00'1 1.0
2014-Nov-19 21:33S 29°54' E 031°00'0 0.0
2014-Nov-19 20:18S 29°54' E 031°00'0 0.0
2014-Nov-19 19:33S 29°54' E 031°00'0 0.0
2014-Nov-19 18:20S 29°54' E 031°00'4 5.0
2014-Nov-19 17:34S 29°51' E 031°04'8 8.3
2014-Nov-19 16:34S 29°44' E 031°08'5 4.9
2014-Nov-19 15:34S 29°41' E 031°12'1 1.5
2014-Nov-19 14:34S 29°42' E 031°14'2 2.4
2014-Nov-19 13:34S 29°44' E 031°14'8 8.2
2014-Nov-19 12:33S 29°50' E 031°07'7 6.6
2014-Nov-19 11:33S 29°53' E 031°00'1 0.7
2014-Nov-19 10:33S 29°54' E 031°00'0 0.0
2014-Nov-19 09:33S 29°54' E 031°00'0 0.0
2014-Nov-19 08:31S 29°54' E 031°00'0 0.0
2014-Nov-19 07:18S 29°54' E 031°00'0 0.0
2014-Nov-19 06:33S 29°54' E 031°00'0 0.0
2014-Nov-19 05:33S 29°54' E 031°00'0 0.0
2014-Nov-19 04:33S 29°54' E 031°00'0 0.0
2014-Nov-19 03:33S 29°54' E 031°00'0 0.0
2014-Nov-19 02:33S 29°54' E 031°00'0 0.0
2014-Nov-19 01:33S 29°54' E 031°00'  
Track history (hours):
 
Tides and Currents Weather Stations Pressure Air Temp Water Temp Dewpoint Dewpoint Depression Visibility Wind Speed Wind Dir Waves Ship Positions

MV Causeway Supplier

Last reported at 2014-Nov-27 18:10 UTC. Time now 2014-Nov-27 19:37 UTC.
Position S 29°54' E 031°00'.

Length 22 m; draft 2.7 m.

Type: . MMSI: 601041200.

Date/timePositionNaut miles runAvg speedWind from/ knotsBaromVisibWave heightAir tempDewpointWater temp
2014-Nov-27 18:10S 29°54' E 031°00'2 3.8
2014-Nov-27 17:34S 29°52' E 031°02'1 1.2
2014-Nov-27 16:33S 29°53' E 031°02'0 0.0
2014-Nov-27 15:33S 29°53' E 031°02'2 2.0
2014-Nov-27 14:33S 29°54' E 031°00'0 0.0
2014-Nov-27 13:33S 29°54' E 031°00'3 3.2
2014-Nov-27 12:33S 29°52' E 031°03'5 5.0
2014-Nov-27 11:33S 29°57' E 031°04'2 1.2
2014-Nov-27 09:25S 29°59' E 031°05'2 2.7
2014-Nov-27 08:33S 29°57' E 031°07'2 2.2
2014-Nov-27 07:33S 29°56' E 031°08'3 3.0
2014-Nov-27 06:33S 29°53' E 031°08'5 5.4
2014-Nov-27 05:33S 29°52' E 031°02'2 2.2
2014-Nov-27 04:33S 29°54' E 031°00'0 0.0
2014-Nov-27 03:33S 29°54' E 031°00'0 0.0
2014-Nov-26 04:22S 29°54' E 031°00'3 4.2
2014-Nov-26 03:33S 29°52' E 031°04'4 3.8
2014-Nov-26 02:33S 29°52' E 031°08'3 3.2
2014-Nov-26 01:33S 29°51' E 031°05'5 4.8
2014-Nov-26 00:31S 29°54' E 031°00'0 0.0
2014-Nov-25 23:33S 29°54' E 031°00'0 0.0
2014-Nov-25 22:33S 29°54' E 031°00'0 0.0
2014-Nov-25 21:33S 29°54' E 031°00'0 0.0
2014-Nov-25 20:33S 29°54' E 031°00'0 0.0
2014-Nov-24 04:16S 29°54' E 031°00'3 3.6
2014-Nov-24 03:33S 29°53' E 031°03'7 6.9
2014-Nov-24 02:33S 29°56' E 031°10'1 1.3
2014-Nov-24 01:33S 29°55' E 031°09'7 6.9
2014-Nov-24 00:33S 29°52' E 031°02'2 2.2
2014-Nov-23 23:33S 29°54' E 031°00'0 0.0
2014-Nov-23 22:34S 29°54' E 031°00'0 0.0
2014-Nov-23 21:33S 29°54' E 031°00'10 0.3
2014-Nov-22 12:10S 29°57' E 031°11'1 1.3
2014-Nov-22 11:33S 29°56' E 031°12'1 1.2
2014-Nov-22 10:33S 29°55' E 031°13'1 0.9
2014-Nov-22 09:33S 29°55' E 031°14'4 4.1
2014-Nov-22 08:33S 29°53' E 031°09'8 7.6
2014-Nov-22 07:32S 29°52' E 031°01'2 1.7
2014-Nov-22 06:33S 29°54' E 031°00'0 0.0
2014-Nov-22 05:33S 29°54' E 031°00'5 0.2
2014-Nov-21 06:16S 29°51' E 031°04'6 8.7
2014-Nov-21 05:33S 29°45' E 031°07'8 7.7
2014-Nov-21 04:33S 29°39' E 031°13'1 0.9
2014-Nov-21 03:33S 29°40' E 031°14'1 0.9
2014-Nov-21 02:33S 29°40' E 031°15'1 1.2
2014-Nov-21 01:33S 29°41' E 031°16'1 1.1
2014-Nov-21 00:33S 29°41' E 031°17'8 8.1
2014-Nov-20 23:33S 29°47' E 031°10'9 8.5
2014-Nov-20 22:33S 29°53' E 031°03'3 2.7
2014-Nov-20 21:34S 29°54' E 031°00'0 0.0
2014-Nov-20 20:33S 29°54' E 031°00'0 0.0
2014-Nov-20 19:28S 29°54' E 031°00'1 0.8
2014-Nov-20 18:33S 29°53' E 031°00'5 5.0
2014-Nov-20 17:33S 29°49' E 031°04'7 7.3
2014-Nov-20 16:33S 29°43' E 031°08'4 4.2
2014-Nov-20 15:33S 29°39' E 031°10'2 1.9
2014-Nov-20 14:33S 29°40' E 031°12'2 1.9
2014-Nov-20 13:33S 29°41' E 031°14'6 6.4
2014-Nov-20 12:34S 29°46' E 031°09'7 7.3
2014-Nov-20 11:34S 29°52' E 031°04'4 1.9
2014-Nov-20 09:34S 29°54' E 031°00'0 0.0
2014-Nov-20 08:33S 29°54' E 031°00'3 1.1
2014-Nov-20 06:08S 29°53' E 031°03'5 8.2
2014-Nov-20 05:33S 29°49' E 031°07'9 8.7
2014-Nov-20 04:33S 29°43' E 031°14'0 0.4
2014-Nov-20 03:33S 29°43' E 031°14'0 0.3
2014-Nov-20 02:33S 29°43' E 031°14'1 0.6
2014-Nov-20 01:33S 29°43' E 031°15'2 2.0
2014-Nov-20 00:34S 29°43' E 031°13'7 7.0
2014-Nov-19 23:33S 29°48' E 031°07'7 7.2
2014-Nov-19 22:33S 29°53' E 031°00'1 1.0
2014-Nov-19 21:33S 29°54' E 031°00'0 0.0
2014-Nov-19 20:18S 29°54' E 031°00'0 0.0
2014-Nov-19 19:33S 29°54' E 031°00'0 0.0
2014-Nov-19 18:20S 29°54' E 031°00'4 5.0
2014-Nov-19 17:34S 29°51' E 031°04'8 8.3
2014-Nov-19 16:34S 29°44' E 031°08'5 4.9
2014-Nov-19 15:34S 29°41' E 031°12'1 1.5
2014-Nov-19 14:34S 29°42' E 031°14'2 2.4
2014-Nov-19 13:34S 29°44' E 031°14'8 8.2
2014-Nov-19 12:33S 29°50' E 031°07'7 6.6
2014-Nov-19 11:33S 29°53' E 031°00'1 0.7
2014-Nov-19 10:33S 29°54' E 031°00'0 0.0
2014-Nov-19 09:33S 29°54' E 031°00'0 0.0
2014-Nov-19 08:31S 29°54' E 031°00'0 0.0
2014-Nov-19 07:18S 29°54' E 031°00'0 0.0
2014-Nov-19 06:33S 29°54' E 031°00'0 0.0
2014-Nov-19 05:33S 29°54' E 031°00'0 0.0
2014-Nov-19 04:33S 29°54' E 031°00'0 0.0
2014-Nov-19 03:33S 29°54' E 031°00'0 0.0
2014-Nov-19 02:33S 29°54' E 031°00'0 0.0
2014-Nov-19 01:33S 29°54' E 031°00'  

Dump ship's entire track history